
Research Scientist/Scholar II
| Date Time MST |
Temp °F |
RH % |
DewPt °F |
Wind mph |
Dir ° |
Gust mph |
Dir ° |
Press in Hg |
Solar W/m^2 |
Prec in |
|---|---|---|---|---|---|---|---|---|---|---|
| 2026-05-05 12:45 | 32.3 | 97.1 | 31.6 | 7.0 | 325 | 9.2 | 318 | 24.828 | 220.0 | 0.00 |
| 2026-05-05 12:40 | 32.1 | 97.0 | 31.3 | 6.7 | 317 | 8.0 | 321 | 24.828 | 173.6 | 0.00 |
| 2026-05-05 12:35 | 32.0 | 97.2 | 31.3 | 4.4 | 295 | 6.9 | 321 | 24.830 | 186.5 | 0.00 |
| 2026-05-05 12:30 | 31.9 | 97.0 | 31.1 | 6.3 | 319 | 7.5 | 328 | 24.830 | 155.7 | 0.00 |
| 2026-05-05 12:25 | 31.6 | 96.9 | 30.8 | 7.6 | 341 | 10.0 | 333 | 24.832 | 141.3 | 0.00 |
| 2026-05-05 12:20 | 31.6 | 96.9 | 30.8 | 9.4 | 341 | 11.3 | 344 | 24.834 | 124.0 | 0.00 |
| 2026-05-05 12:15 | 31.5 | 96.8 | 30.7 | 8.5 | 352 | 11.4 | 343 | 24.834 | 102.2 | 0.00 |
| 2026-05-05 12:10 | 31.6 | 96.5 | 30.7 | 10.5 | 341 | 13.6 | 332 | 24.835 | 92.3 | 0.00 |
| 2026-05-05 12:05 | 31.7 | 96.5 | 30.8 | 8.6 | 327 | 12.3 | 341 | 24.836 | 81.7 | 0.00 |
| 2026-05-05 12:00 | 31.7 | 96.3 | 30.8 | 7.9 | 332 | 10.1 | 11 | 24.836 | 85.5 | 0.00 |
| 2026-05-05 11:55 | 31.8 | 96.0 | 30.8 | 7.4 | 340 | 10.0 | 8 | 24.835 | 117.6 | 0.00 |
| 2026-05-05 11:50 | 31.9 | 95.9 | 30.8 | 9.5 | 6 | 13.6 | 21 | 24.833 | 111.0 | 0.00 |
| 2026-05-05 11:45 | 32.2 | 95.7 | 31.1 | 8.8 | 19 | 12.4 | 15 | 24.831 | 88.8 | 0.00 |
| 2026-05-05 11:40 | 32.4 | 95.2 | 31.2 | 10.1 | 8 | 13.2 | 350 | 24.829 | 91.7 | 0.00 |
| 2026-05-05 11:35 | 33.2 | 94.8 | 31.9 | 8.3 | 335 | 11.7 | 330 | 24.828 | 83.6 | 0.00 |
| 2026-05-05 11:30 | 33.5 | 94.9 | 32.2 | 5.1 | 356 | 6.0 | 4 | 24.826 | 145.1 | 0.01 |
| 2026-05-05 11:25 | 33.8 | 94.8 | 32.4 | 4.3 | 4 | 5.0 | 5 | 24.823 | 186.8 | 0.01 |
| 2026-05-05 11:20 | 33.8 | 94.6 | 32.5 | 2.4 | 11 | 3.7 | 6 | 24.824 | 198.4 | 0.00 |
| 2026-05-05 11:15 | 33.9 | 94.6 | 32.5 | 1.3 | 13 | 1.7 | 11 | 24.826 | 218.1 | 0.01 |
| 2026-05-05 11:10 | 33.9 | 94.8 | 32.6 | 0.8 | 17 | 1.5 | 9 | 24.827 | 203.4 | 0.01 |
| 2026-05-05 11:05 | 33.9 | 94.8 | 32.6 | 0.7 | 45 | 1.6 | 358 | 24.830 | 183.2 | 0.00 |
| 2026-05-05 11:00 | 33.7 | 94.9 | 32.4 | 1.2 | 334 | 2.0 | 350 | 24.830 | 168.8 | 0.01 |
| 2026-05-05 10:55 | 33.6 | 94.8 | 32.3 | 1.8 | 328 | 2.8 | 350 | 24.828 | 147.9 | 0.00 |
| 2026-05-05 10:50 | 33.7 | 94.5 | 32.3 | 2.6 | 346 | 3.3 | 334 | 24.828 | 144.0 | 0.01 |
| 2026-05-05 10:45 | 33.7 | 94.7 | 32.4 | 2.1 | 344 | 2.5 | 347 | 24.829 | 139.3 | 0.01 |
| 2026-05-05 10:40 | 33.6 | 94.6 | 32.2 | 2.5 | 358 | 3.0 | 23 | 24.828 | 134.1 | 0.01 |
| 2026-05-05 10:35 | 33.6 | 94.5 | 32.2 | 3.0 | 20 | 3.6 | 32 | 24.829 | 136.3 | 0.00 |
| 2026-05-05 10:30 | 33.6 | 94.0 | 32.0 | 2.8 | 30 | 3.1 | 23 | 24.831 | 138.4 | 0.02 |
| 2026-05-05 10:25 | 33.8 | 93.7 | 32.2 | 1.5 | 24 | 2.6 | 28 | 24.836 | 127.8 | 0.00 |
| 2026-05-05 10:20 | 34.1 | 93.5 | 32.4 | 0.4 | 348 | 1.2 | 352 | 24.839 | 123.0 | 0.01 |
| Date Time MST |
Temp °C |
RH % |
DewPt °C |
Wind m/s |
Dir ° |
Gust m/s |
Dir ° |
Press hPa |
Solar W/m^2 |
Prec mm |
|---|---|---|---|---|---|---|---|---|---|---|
| 2026-05-05 12:45 | 0.2 | 97.1 | -0.2 | 3.1 | 325 | 4.1 | 318 | 840.76 | 220.0 | 0.00 |
| 2026-05-05 12:40 | 0.1 | 97.0 | -0.4 | 3.0 | 317 | 3.6 | 321 | 840.76 | 173.6 | 0.00 |
| 2026-05-05 12:35 | 0.0 | 97.2 | -0.4 | 1.9 | 295 | 3.1 | 321 | 840.83 | 186.5 | 0.00 |
| 2026-05-05 12:30 | -0.1 | 97.0 | -0.5 | 2.8 | 319 | 3.3 | 328 | 840.86 | 155.7 | 0.00 |
| 2026-05-05 12:25 | -0.2 | 96.9 | -0.6 | 3.4 | 341 | 4.5 | 333 | 840.90 | 141.3 | 0.00 |
| 2026-05-05 12:20 | -0.2 | 96.9 | -0.7 | 4.2 | 341 | 5.0 | 344 | 840.96 | 124.0 | 0.00 |
| 2026-05-05 12:15 | -0.3 | 96.8 | -0.7 | 3.8 | 352 | 5.1 | 343 | 840.97 | 102.2 | 0.00 |
| 2026-05-05 12:10 | -0.2 | 96.5 | -0.7 | 4.7 | 341 | 6.1 | 332 | 841.02 | 92.3 | 0.00 |
| 2026-05-05 12:05 | -0.2 | 96.5 | -0.7 | 3.8 | 327 | 5.5 | 341 | 841.06 | 81.7 | 0.00 |
| 2026-05-05 12:00 | -0.2 | 96.3 | -0.7 | 3.5 | 332 | 4.5 | 11 | 841.04 | 85.5 | 0.00 |
| 2026-05-05 11:55 | -0.1 | 96.0 | -0.7 | 3.3 | 340 | 4.5 | 8 | 841.00 | 117.6 | 0.00 |
| 2026-05-05 11:50 | -0.1 | 95.9 | -0.6 | 4.2 | 6 | 6.1 | 21 | 840.95 | 111.0 | 0.00 |
| 2026-05-05 11:45 | 0.1 | 95.7 | -0.5 | 3.9 | 19 | 5.5 | 15 | 840.89 | 88.8 | 0.00 |
| 2026-05-05 11:40 | 0.2 | 95.2 | -0.4 | 4.5 | 8 | 5.9 | 350 | 840.82 | 91.7 | 0.00 |
| 2026-05-05 11:35 | 0.7 | 94.8 | -0.1 | 3.7 | 335 | 5.2 | 330 | 840.79 | 83.6 | 0.00 |
| 2026-05-05 11:30 | 0.9 | 94.9 | 0.1 | 2.3 | 356 | 2.7 | 4 | 840.71 | 145.1 | 0.25 |
| 2026-05-05 11:25 | 1.0 | 94.8 | 0.2 | 1.9 | 4 | 2.2 | 5 | 840.61 | 186.8 | 0.25 |
| 2026-05-05 11:20 | 1.0 | 94.6 | 0.3 | 1.1 | 11 | 1.7 | 6 | 840.64 | 198.4 | 0.00 |
| 2026-05-05 11:15 | 1.1 | 94.6 | 0.3 | 0.6 | 13 | 0.7 | 11 | 840.71 | 218.1 | 0.25 |
| 2026-05-05 11:10 | 1.1 | 94.8 | 0.3 | 0.4 | 17 | 0.7 | 9 | 840.75 | 203.4 | 0.25 |
| 2026-05-05 11:05 | 1.1 | 94.8 | 0.3 | 0.3 | 45 | 0.7 | 358 | 840.83 | 183.2 | 0.00 |
| 2026-05-05 11:00 | 0.9 | 94.9 | 0.2 | 0.5 | 334 | 0.9 | 350 | 840.83 | 168.8 | 0.25 |
| 2026-05-05 10:55 | 0.9 | 94.8 | 0.1 | 0.8 | 328 | 1.3 | 350 | 840.76 | 147.9 | 0.00 |
| 2026-05-05 10:50 | 1.0 | 94.5 | 0.2 | 1.1 | 346 | 1.5 | 334 | 840.78 | 144.0 | 0.25 |
| 2026-05-05 10:45 | 1.0 | 94.7 | 0.2 | 0.9 | 344 | 1.1 | 347 | 840.80 | 139.3 | 0.25 |
| 2026-05-05 10:40 | 0.9 | 94.6 | 0.1 | 1.1 | 358 | 1.3 | 23 | 840.76 | 134.1 | 0.25 |
| 2026-05-05 10:35 | 0.9 | 94.5 | 0.1 | 1.3 | 20 | 1.6 | 32 | 840.80 | 136.3 | 0.00 |
| 2026-05-05 10:30 | 0.9 | 94.0 | 0.0 | 1.3 | 30 | 1.4 | 23 | 840.86 | 138.4 | 0.51 |
| 2026-05-05 10:25 | 1.0 | 93.7 | 0.1 | 0.7 | 24 | 1.2 | 28 | 841.03 | 127.8 | 0.00 |
| 2026-05-05 10:20 | 1.1 | 93.5 | 0.2 | 0.2 | 348 | 0.5 | 352 | 841.15 | 123.0 | 0.25 |

Research Scientist/Scholar II
Galina.Chirokova@colostate.edu
Cooperative Institute for Research in the Atmosphere
Colorado State University
1375 Campus Delivery
Fort Collins, CO 80523-1375
970-491-8522
CIRA Room 31